Time;durP1;ratioP1;P1;durP2;ratioP2;P2;SDS_P1;SDS_P2;PMS_P1;PMS_P2;Temp;Humidity;BMP_temperature;BMP_pressure;BME280_temperature;BME280_humidity;BME280_pressure;Samples;Min_cycle;Max_cycle;Signal;HPM_P1;HPM_P2
2024/01/20 00:03:47;;;;;;;3.93;2.77;;;;;;;17.38;46.61;102335.03;10407720;28;20280;-54
2024/01/20 00:08:47;;;;;;;4.68;3.10;;;;;;;17.36;46.36;102340.63;10405596;28;20292;-54
2024/01/20 00:13:48;;;;;;;3.37;2.33;;;;;;;17.36;45.43;102345.19;10448342;28;20029;-54
2024/01/20 00:18:48;;;;;;;4.50;2.78;;;;;;;17.36;46.20;102345.19;10453433;28;20279;-54
2024/01/20 00:23:49;;;;;;;5.97;3.73;;;;;;;17.33;45.19;102349.19;10415246;28;20030;-55
2024/01/20 00:28:49;;;;;;;4.78;2.97;;;;;;;17.35;45.77;102348.94;10414156;28;20272;-54
2024/01/20 00:33:50;;;;;;;4.27;2.90;;;;;;;17.38;46.10;102351.09;10427488;28;20036;-54
2024/01/20 00:38:50;;;;;;;4.40;2.80;;;;;;;17.41;46.51;102340.72;10412330;28;20291;-54
2024/01/20 00:43:50;;;;;;;4.30;2.88;;;;;;;17.40;46.16;102349.00;10412938;28;20311;-53
2024/01/20 00:48:51;;;;;;;5.10;3.03;;;;;;;17.40;45.26;102352.47;10413887;28;20060;-54
2024/01/20 00:53:51;;;;;;;5.22;3.40;;;;;;;17.44;45.93;102359.00;10413706;28;20032;-54
2024/01/20 00:58:52;;;;;;;3.93;3.03;;;;;;;17.43;45.53;102346.66;10426689;28;20191;-53
2024/01/20 01:03:52;;;;;;;5.53;3.20;;;;;;;17.43;44.84;102346.66;10413252;28;20383;-55
2024/01/20 01:08:52;;;;;;;7.37;3.57;;;;;;;17.46;45.30;102348.81;10412763;28;20323;-53
2024/01/20 01:13:52;;;;;;;5.70;3.53;;;;;;;17.43;46.39;102346.66;10454151;28;20291;-51
2024/01/20 01:18:53;;;;;;;4.43;3.30;;;;;;;17.46;46.14;102346.13;10453739;28;20271;-53
2024/01/20 01:23:53;;;;;;;4.70;3.20;;;;;;;17.44;44.94;102356.31;10453846;28;20798;-54
2024/01/20 01:28:53;;;;;;;5.32;3.15;;;;;;;17.44;45.91;102352.81;10452643;28;20388;-54
2024/01/20 01:33:54;;;;;;;5.20;3.07;;;;;;;17.47;45.60;102350.44;10423904;28;20461;-54
2024/01/20 01:38:54;;;;;;;3.77;2.53;;;;;;;17.46;45.60;102367.59;10411746;28;20280;-54
2024/01/20 01:43:54;;;;;;;4.57;3.05;;;;;;;17.46;45.58;102372.97;10411745;28;20403;-54
2024/01/20 01:48:55;;;;;;;5.73;3.63;;;;;;;17.49;46.88;102368.97;10411358;28;20752;-54
2024/01/20 01:54:03;;;;;;;4.80;3.63;;;;;;;17.53;47.45;102378.16;10410240;28;20326;-54
2024/01/20 01:59:03;;;;;;;4.40;3.08;;;;;;;17.51;47.95;102381.06;10410071;28;20023;-54
2024/01/20 02:04:04;;;;;;;4.93;3.40;;;;;;;17.47;47.86;102392.53;10411118;28;20025;-55
2024/01/20 02:09:04;;;;;;;5.05;3.13;;;;;;;17.41;47.53;102390.84;10421227;28;20371;-54
2024/01/20 02:14:06;;;;;;;6.05;3.25;;;;;;;17.37;48.18;102390.53;10451824;28;20040;-54
2024/01/20 02:19:06;;;;;;;6.57;3.25;;;;;;;17.35;47.68;102399.88;10449699;28;20387;-54
2024/01/20 02:24:08;;;;;;;4.17;2.90;;;;;;;17.30;47.79;102395.25;10450136;28;20037;-55
2024/01/20 02:29:08;;;;;;;7.07;3.97;;;;;;;17.27;47.62;102392.22;10449903;28;20267;-54
2024/01/20 02:34:08;;;;;;;5.22;2.72;;;;;;;17.23;47.88;102395.41;10419072;28;20029;-54
2024/01/20 02:39:09;;;;;;;4.20;3.03;;;;;;;17.22;47.39;102395.66;10408363;28;20048;-55
2024/01/20 02:44:09;;;;;;;4.03;3.08;;;;;;;17.22;48.00;102403.72;10408910;28;20033;-55
2024/01/20 02:49:09;;;;;;;5.47;3.90;;;;;;;17.25;47.12;102400.53;10408088;28;20065;-54
2024/01/20 02:54:10;;;;;;;4.97;3.45;;;;;;;17.23;47.27;102400.78;10407288;28;20287;-54
2024/01/20 02:59:10;;;;;;;3.90;2.67;;;;;;;17.29;47.26;102407.03;10409264;28;20190;-54
2024/01/20 03:04:10;;;;;;;4.10;2.73;;;;;;;17.31;48.10;102402.25;10408522;28;20796;-55
2024/01/20 03:09:14;;;;;;;5.63;3.73;;;;;;;17.32;47.22;102398.50;10409334;28;20335;-54
2024/01/20 03:14:14;;;;;;;5.10;2.58;;;;;;;17.32;47.31;102403.06;10448866;28;20814;-55
2024/01/20 03:19:15;;;;;;;5.23;3.23;;;;;;;17.30;47.80;102403.31;10449388;28;20029;-54
2024/01/20 03:24:19;;;;;;;5.50;3.33;;;;;;;17.32;47.48;102417.28;10442572;28;20272;-54
2024/01/20 03:29:19;;;;;;;4.05;2.72;;;;;;;17.34;47.85;102420.50;10408415;28;20025;-54
2024/01/20 03:34:20;;;;;;;4.20;2.70;;;;;;;17.42;47.70;102414.75;10432841;28;20033;-54
2024/01/20 03:39:20;;;;;;;5.72;3.55;;;;;;;17.40;46.95;102406.09;10449246;28;20275;-54
2024/01/20 03:44:21;;;;;;;3.97;2.83;;;;;;;17.43;46.09;102418.22;10448741;28;20032;-54
2024/01/20 03:49:21;;;;;;;4.73;2.77;;;;;;;17.38;45.90;102426.19;10450896;28;20638;-53
2024/01/20 03:54:21;;;;;;;4.60;3.13;;;;;;;17.38;46.34;102436.91;10456557;28;20291;-54
2024/01/20 03:59:22;;;;;;;5.03;2.70;;;;;;;17.36;45.68;102422.94;10457146;28;20306;-55
2024/01/20 04:04:22;;;;;;;5.07;3.33;;;;;;;17.36;46.06;102431.81;10456577;28;20279;-55
2024/01/20 04:09:22;;;;;;;5.78;3.13;;;;;;;17.41;46.83;102429.22;10450458;28;20283;-53
2024/01/20 04:14:22;;;;;;;5.57;3.10;;;;;;;17.49;45.80;102422.59;10437545;28;20033;-55
2024/01/20 04:19:23;;;;;;;4.37;3.20;;;;;;;17.51;45.94;102425.84;10415284;28;20287;-54
2024/01/20 04:24:23;;;;;;;5.72;3.83;;;;;;;17.48;45.90;102431.69;10428008;28;20268;-54
2024/01/20 04:29:23;;;;;;;5.87;2.90;;;;;;;17.48;46.56;102429.03;10414548;28;20026;-54
2024/01/20 04:34:24;;;;;;;5.57;3.03;;;;;;;17.45;46.60;102427.66;10419800;28;20350;-54
2024/01/20 04:39:24;;;;;;;4.07;2.37;;;;;;;17.44;46.78;102435.94;10414305;28;20280;-54
2024/01/20 04:44:24;;;;;;;5.23;3.67;;;;;;;17.44;46.18;102441.31;10412422;28;20349;-55
2024/01/20 04:49:25;;;;;;;5.73;3.00;;;;;;;17.43;46.41;102434.31;10414258;28;20284;-53
2024/01/20 04:54:25;;;;;;;4.33;2.90;;;;;;;17.45;46.02;102432.19;10412838;28;20350;-54
2024/01/20 04:59:25;;;;;;;4.23;2.80;;;;;;;17.39;45.66;102442.03;10413284;28;20276;-55
2024/01/20 05:04:26;;;;;;;4.63;3.17;;;;;;;17.43;46.53;102453.91;10411514;28;20283;-54
2024/01/20 05:09:26;;;;;;;5.63;2.80;;;;;;;17.41;45.65;102464.06;10417345;28;20766;-54
2024/01/20 05:14:26;;;;;;;3.90;2.40;;;;;;;17.41;45.59;102458.72;10453525;28;20294;-54
2024/01/20 05:19:27;;;;;;;5.97;3.13;;;;;;;17.39;46.47;102466.16;10453721;28;20291;-54
2024/01/20 05:24:27;;;;;;;3.50;2.40;;;;;;;17.43;46.14;102477.22;10442903;28;20768;-56
2024/01/20 05:29:27;;;;;;;5.10;3.08;;;;;;;17.41;45.39;102482.03;10410881;28;20314;-55
2024/01/20 05:34:28;;;;;;;3.93;2.83;;;;;;;17.42;45.96;102476.41;10417947;28;20120;-54
2024/01/20 05:39:28;;;;;;;5.35;3.10;;;;;;;17.40;45.21;102481.19;10412284;28;20314;-55
2024/01/20 05:44:28;;;;;;;5.37;3.30;;;;;;;17.42;46.26;102478.28;10411050;28;20083;-55
2024/01/20 05:49:28;;;;;;;3.87;2.60;;;;;;;17.38;45.68;102483.31;10411840;28;20346;-54
2024/01/20 05:54:29;;;;;;;5.00;2.57;;;;;;;17.37;45.69;102479.00;10422522;28;20337;-54
2024/01/20 05:59:29;;;;;;;4.53;2.90;;;;;;;17.39;45.95;102482.25;10428433;28;20290;-55
2024/01/20 06:04:29;;;;;;;3.70;2.35;;;;;;;17.43;46.46;102488.78;10412574;28;20279;-54
2024/01/20 06:09:30;;;;;;;5.17;3.57;;;;;;;17.45;46.29;102489.31;10421310;28;20045;-54
2024/01/20 06:14:30;;;;;;;7.97;2.53;;;;;;;17.62;45.24;102491.19;10450952;28;20287;-52
2024/01/20 06:19:30;;;;;;;5.20;3.00;;;;;;;17.72;45.70;102499.41;10448833;28;20044;-54
2024/01/20 06:24:31;;;;;;;9.10;2.73;;;;;;;17.79;45.77;102513.47;10448605;28;20587;-57
2024/01/20 06:29:31;;;;;;;8.73;3.33;;;;;;;17.78;47.90;102512.66;10448466;28;20479;-56
2024/01/20 06:34:31;;;;;;;6.73;2.17;;;;;;;17.63;46.89;102512.38;10418290;28;20036;-57
2024/01/20 06:39:33;;;;;;;10.15;3.13;;;;;;;17.55;48.12;102512.81;10421877;28;20770;-55
2024/01/20 06:44:33;;;;;;;11.13;3.58;;;;;;;17.56;47.28;102516.31;10440323;28;20027;-58
2024/01/20 06:49:33;;;;;;;8.90;3.75;;;;;;;17.55;47.04;102518.19;10449333;28;20029;-56
2024/01/20 06:54:34;;;;;;;10.90;2.70;;;;;;;17.52;47.38;102522.19;10420660;28;20033;-56
2024/01/20 06:59:34;;;;;;;7.07;3.73;;;;;;;17.41;48.61;102506.16;10418274;28;20017;-55
2024/01/20 07:04:34;;;;;;;5.07;2.57;;;;;;;17.45;47.83;102510.78;10418399;28;20613;-56
2024/01/20 07:09:39;;;;;;;6.85;3.42;;;;;;;17.45;47.98;102526.06;10413640;28;20283;-57
2024/01/20 07:14:42;;;;;;;12.43;4.85;;;;;;;17.29;49.05;102540.28;10440242;28;20026;-56
2024/01/20 07:19:42;;;;;;;14.70;4.30;;;;;;;17.18;49.29;102533.94;10416463;28;20534;-56
2024/01/20 07:24:42;;;;;;;10.63;3.78;;;;;;;17.20;48.42;102529.94;10424556;28;20028;-57
2024/01/20 07:29:43;;;;;;;7.30;3.40;;;;;;;17.12;48.59;102533.00;10424329;28;20037;-57
2024/01/20 07:34:43;;;;;;;14.93;4.43;;;;;;;17.10;49.73;102542.34;10442236;28;20028;-56
2024/01/20 07:39:43;;;;;;;13.48;4.38;;;;;;;17.16;48.52;102538.69;10449709;28;20386;-55
2024/01/20 07:44:44;;;;;;;12.37;4.30;;;;;;;17.24;48.99;102552.53;10449005;28;20108;-55
2024/01/20 07:49:45;;;;;;;22.10;5.63;;;;;;;17.24;48.11;102555.19;10449385;28;20319;-55
2024/01/20 07:54:46;;;;;;;12.13;3.85;;;;;;;17.06;49.05;102544.72;10444566;28;20029;-53
2024/01/20 07:59:46;;;;;;;10.67;4.70;;;;;;;17.00;48.10;102559.06;10406563;28;20572;-55
2024/01/20 08:04:46;;;;;;;13.67;5.37;;;;;;;17.11;48.41;102558.19;10407773;28;20272;-52
2024/01/20 08:09:47;;;;;;;16.63;5.93;;;;;;;17.13;48.32;102565.97;10413356;28;20292;-55
2024/01/20 08:14:47;;;;;;;11.53;6.27;;;;;;;17.18;48.95;102574.13;10407403;28;20296;-55
2024/01/20 08:19:49;;;;;;;11.60;6.33;;;;;;;17.12;49.30;102572.41;10407899;28;20271;-56
2024/01/20 08:24:49;;;;;;;13.25;6.90;;;;;;;17.10;50.01;102574.50;10405941;28;20326;-53
2024/01/20 08:29:49;;;;;;;13.10;7.13;;;;;;;17.07;48.94;102567.78;10421620;28;20578;-54
2024/01/20 08:34:49;;;;;;;20.33;6.80;;;;;;;17.18;49.19;102568.78;10433516;28;20382;-54
2024/01/20 08:39:50;;;;;;;29.83;8.10;;;;;;;17.12;48.99;102567.84;10447545;28;20276;-55
2024/01/20 08:44:50;;;;;;;21.88;8.15;;;;;;;17.15;51.14;102571.91;10426960;28;20267;-55
2024/01/20 08:49:53;;;;;;;14.37;7.20;;;;;;;17.13;49.51;102582.06;10426575;28;20029;-56
2024/01/20 08:54:54;;;;;;;17.10;6.93;;;;;;;17.15;50.75;102582.63;10429288;28;20290;-56
2024/01/20 08:59:54;;;;;;;16.48;6.55;;;;;;;17.16;50.15;102590.44;10429015;28;20029;-52
2024/01/20 09:04:54;;;;;;;12.93;5.37;;;;;;;17.04;50.94;102599.56;10433522;28;20036;-56
2024/01/20 09:09:56;;;;;;;18.67;6.53;;;;;;;17.12;50.20;102604.56;10448300;28;20306;-57
2024/01/20 09:14:57;;;;;;;21.40;6.35;;;;;;;17.15;50.17;102612.94;10454383;28;20837;-55
2024/01/20 09:19:57;;;;;;;20.88;6.28;;;;;;;17.22;49.04;102618.97;10441285;28;20144;-55
2024/01/20 09:24:58;;;;;;;10.33;4.70;;;;;;;17.25;48.75;102617.69;10420321;28;20061;-54
2024/01/20 09:29:58;;;;;;;13.82;5.88;;;;;;;17.19;48.81;102619.47;10434592;28;20403;-55
2024/01/20 09:35:00;;;;;;;15.85;4.95;;;;;;;17.16;48.14;102614.56;10433139;28;20100;-55
2024/01/20 09:40:00;;;;;;;20.48;7.75;;;;;;;17.19;48.79;102619.47;10431848;28;20025;-55
2024/01/20 09:45:01;;;;;;;12.30;4.50;;;;;;;17.24;48.80;102626.78;10411025;28;20021;-54
2024/01/20 09:50:05;;;;;;;8.88;4.68;;;;;;;17.28;47.82;102619.88;10413201;28;20052;-55
2024/01/20 09:55:18;;;;;;;10.50;4.13;;;;;;;17.28;47.36;102637.81;10420173;28;20040;-55
2024/01/20 10:00:20;;;;;;;7.03;4.20;;;;;;;17.20;46.94;102637.19;10436434;28;20021;-54
2024/01/20 10:05:23;;;;;;;10.18;4.50;;;;;;;17.28;47.10;102640.50;10426333;28;20468;-55
2024/01/20 10:10:24;;;;;;;9.15;4.07;;;;;;;17.25;46.90;102645.31;10428931;28;20049;-55
2024/01/20 10:15:26;;;;;;;10.53;3.63;;;;;;;17.23;46.50;102643.91;10426241;28;20079;-55
2024/01/20 10:20:31;;;;;;;7.97;4.35;;;;;;;17.26;47.06;102640.75;10426149;28;20267;-55
2024/01/20 10:25:31;;;;;;;5.85;3.75;;;;;;;17.27;46.35;102647.75;10427978;28;20017;-56
2024/01/20 10:30:32;;;;;;;6.57;3.88;;;;;;;17.24;46.01;102646.34;10428675;28;20036;-55
2024/01/20 10:35:33;;;;;;;11.32;4.63;;;;;;;17.29;46.89;102640.28;10425601;28;20096;-55
2024/01/20 10:40:36;;;;;;;8.02;3.67;;;;;;;17.29;46.62;102651.03;10425271;28;20021;-55
2024/01/20 10:45:50;;;;;;;8.80;3.80;;;;;;;17.31;45.53;102645.41;10424056;28;20483;-54
2024/01/20 10:50:58;;;;;;;6.05;3.60;;;;;;;17.32;46.60;102652.41;10402623;28;20025;-55
2024/01/20 10:55:58;;;;;;;8.85;4.97;;;;;;;17.24;46.41;102642.84;10426317;28;20028;-56
2024/01/20 11:00:59;;;;;;;11.40;3.58;;;;;;;17.23;47.01;102647.41;10439198;28;20039;-54
2024/01/20 11:05:59;;;;;;;5.65;2.72;;;;;;;17.28;46.42;102660.09;10450175;28;20086;-55
2024/01/20 11:11:00;;;;;;;10.32;3.35;;;;;;;17.27;46.61;102650.41;10443949;28;20057;-56
2024/01/20 11:16:00;;;;;;;5.70;2.95;;;;;;;17.11;47.67;102651.19;10450331;28;20025;-55
2024/01/20 11:21:02;;;;;;;8.43;4.37;;;;;;;17.14;47.60;102640.78;10449516;28;20051;-53
2024/01/20 11:26:10;;;;;;;8.60;2.97;;;;;;;17.17;45.93;102640.34;10449286;28;20306;-56
2024/01/20 11:31:20;;;;;;;10.38;3.65;;;;;;;17.27;48.83;102638.88;10443051;28;20084;-52
2024/01/20 11:36:20;;;;;;;12.52;4.05;;;;;;;17.22;48.51;102635.06;10406948;28;20029;-54
2024/01/20 11:41:21;;;;;;;8.25;3.75;;;;;;;17.46;48.86;102635.78;10407217;28;20415;-55
2024/01/20 11:46:21;;;;;;;8.80;3.03;;;;;;;17.50;49.09;102628.03;10408465;28;20018;-55
2024/01/20 11:51:22;;;;;;;10.48;3.55;;;;;;;17.51;49.45;102622.44;10407973;28;20034;-52
2024/01/20 11:56:22;;;;;;;10.70;3.33;;;;;;;17.47;49.12;102621.31;10407891;28;20059;-53
2024/01/20 12:01:23;;;;;;;10.65;3.10;;;;;;;17.43;49.52;102614.00;10407712;28;20480;-54
2024/01/20 12:06:23;;;;;;;8.20;2.83;;;;;;;17.24;48.21;102598.09;10407797;28;20021;-56
2024/01/20 12:11:24;;;;;;;9.37;4.23;;;;;;;17.18;48.78;102601.75;10431685;28;20052;-52
2024/01/20 12:16:25;;;;;;;15.48;3.00;;;;;;;17.43;47.91;102597.91;10457012;28;20650;-56
2024/01/20 12:21:27;;;;;;;14.05;3.42;;;;;;;17.19;49.24;102594.53;10455199;28;20532;-54
2024/01/20 12:26:27;;;;;;;14.18;4.32;;;;;;;17.21;49.26;102585.19;10451683;28;20024;-55
2024/01/20 12:31:30;;;;;;;15.17;3.80;;;;;;;17.09;50.67;102580.94;10433044;28;20017;-56
2024/01/20 12:36:30;;;;;;;18.05;4.90;;;;;;;17.10;49.77;102569.16;10441666;28;20353;-56
2024/01/20 12:41:31;;;;;;;16.43;3.87;;;;;;;17.04;50.92;102580.81;10423644;28;20021;-56
2024/01/20 12:46:31;;;;;;;9.95;3.65;;;;;;;16.88;50.36;102579.72;10417330;28;20333;-56
2024/01/20 12:51:32;;;;;;;12.57;4.95;;;;;;;16.78;50.50;102580.34;10416889;28;20017;-56
2024/01/20 12:56:32;;;;;;;13.07;3.25;;;;;;;16.72;51.08;102585.84;10414754;28;20036;-56
2024/01/20 13:01:33;;;;;;;12.07;4.37;;;;;;;16.66;50.92;102571.47;10452797;28;20511;-56
2024/01/20 13:06:33;;;;;;;7.93;3.03;;;;;;;16.58;50.72;102561.16;10454531;28;20272;-56
2024/01/20 13:11:34;;;;;;;9.15;3.75;;;;;;;16.56;49.01;102547.16;10446975;28;20052;-56
2024/01/20 13:16:34;;;;;;;7.55;3.53;;;;;;;16.55;49.40;102546.34;10454392;28;20059;-56
2024/01/20 13:21:35;;;;;;;10.52;4.47;;;;;;;16.53;48.65;102547.66;10452417;28;20029;-55
2024/01/20 13:26:35;;;;;;;8.90;3.40;;;;;;;16.49;48.38;102539.28;10413101;28;20373;-56
2024/01/20 13:31:35;;;;;;;7.50;3.23;;;;;;;16.51;47.76;102545.22;10418288;28;20461;-56
2024/01/20 13:36:36;;;;;;;8.77;3.87;;;;;;;16.47;48.99;102543.25;10410203;28;20300;-56
2024/01/20 13:41:36;;;;;;;7.55;3.17;;;;;;;16.50;48.94;102545.47;10416941;28;20279;-55
2024/01/20 13:46:37;;;;;;;6.65;3.22;;;;;;;16.50;48.54;102548.94;10412495;28;20017;-56
2024/01/20 13:51:37;;;;;;;11.63;3.70;;;;;;;16.54;49.11;102543.91;10426029;28;20036;-56
2024/01/20 13:56:37;;;;;;;9.57;3.67;;;;;;;16.55;48.90;102550.91;10451688;28;20053;-57
2024/01/20 14:01:37;;;;;;;14.57;3.93;;;;;;;16.63;50.29;102546.00;10451292;28;20307;-55
2024/01/20 14:06:38;;;;;;;13.53;4.17;;;;;;;16.62;49.66;102541.69;10407851;28;20379;-56
2024/01/20 14:11:38;;;;;;;7.50;3.60;;;;;;;16.65;49.31;102543.88;10429082;28;20318;-54
2024/01/20 14:16:39;;;;;;;11.80;3.42;;;;;;;16.64;50.53;102536.91;10439953;28;21072;-54
2024/01/20 14:21:39;;;;;;;9.63;3.85;;;;;;;16.63;51.06;102539.81;10424041;28;20640;-55
2024/01/20 14:26:40;;;;;;;9.20;2.67;;;;;;;16.65;50.14;102533.19;10423187;28;20025;-55
2024/01/20 14:31:47;;;;;;;9.35;3.33;;;;;;;16.74;50.03;102527.47;10434769;28;20272;-54
2024/01/20 14:36:51;;;;;;;9.40;3.15;;;;;;;16.71;50.10;102542.16;10426944;28;20033;-55
2024/01/20 14:41:51;;;;;;;5.00;2.92;;;;;;;16.71;49.90;102531.47;10415790;28;20028;-56
2024/01/20 14:46:51;;;;;;;5.17;2.40;;;;;;;16.72;50.78;102521.56;10429175;28;20036;-56
2024/01/20 14:51:52;;;;;;;7.87;3.40;;;;;;;16.70;50.55;102537.88;10450062;28;20279;-54
2024/01/20 14:56:52;;;;;;;5.63;2.60;;;;;;;16.79;49.97;102543.63;10434414;28;20288;-55
2024/01/20 15:01:52;;;;;;;5.33;2.60;;;;;;;16.74;50.85;102544.38;10423591;28;20291;-56
2024/01/20 15:06:52;;;;;;;9.93;3.20;;;;;;;16.75;50.55;102540.63;10426759;28;20280;-56
2024/01/20 15:11:53;;;;;;;10.80;3.00;;;;;;;16.76;51.60;102550.28;10435564;28;20299;-57
2024/01/20 15:16:53;;;;;;;21.93;5.10;;;;;;;16.78;51.65;102548.19;10446311;28;20284;-57
2024/01/20 15:21:54;;;;;;;18.03;3.87;;;;;;;16.92;50.87;102541.47;10409901;28;20287;-56
2024/01/20 15:26:54;;;;;;;12.60;2.75;;;;;;;16.99;51.65;102557.44;10435246;28;20272;-56
2024/01/20 15:31:54;;;;;;;11.17;3.20;;;;;;;16.89;50.74;102549.19;10420196;28;20036;-55
2024/01/20 15:36:55;;;;;;;17.13;3.63;;;;;;;17.03;51.52;102547.03;10409287;28;20287;-54
2024/01/20 15:41:55;;;;;;;14.07;4.23;;;;;;;17.06;51.08;102552.75;10411324;28;20276;-55
2024/01/20 15:46:55;;;;;;;21.70;3.42;;;;;;;17.04;52.40;102541.44;10410726;28;20276;-55
2024/01/20 15:51:56;;;;;;;12.93;3.20;;;;;;;17.11;51.69;102535.94;10413858;28;20033;-55
2024/01/20 15:56:56;;;;;;;14.80;3.63;;;;;;;17.12;51.16;102542.91;10414099;28;20740;-55
2024/01/20 16:01:56;;;;;;;9.45;3.10;;;;;;;17.05;51.07;102527.00;10414888;28;20276;-55
2024/01/20 16:06:57;;;;;;;10.68;3.20;;;;;;;16.94;50.30;102533.22;10415939;28;20155;-55
2024/01/20 16:11:58;;;;;;;11.70;4.17;;;;;;;16.90;50.51;102534.75;10424384;28;20049;-57
2024/01/20 16:16:59;;;;;;;10.32;3.03;;;;;;;17.01;49.46;102533.88;10428794;28;20287;-56
2024/01/20 16:21:59;;;;;;;16.63;8.15;;;;;;;17.44;52.84;102525.25;10431444;28;20048;-56
2024/01/20 16:26:59;;;;;;;19.40;6.13;;;;;;;17.70;51.25;102528.38;10450944;28;20108;-54
2024/01/20 16:32:00;;;;;;;15.83;6.30;;;;;;;17.78;48.51;102533.31;10444216;28;20320;-55
2024/01/20 16:37:00;;;;;;;12.87;6.33;;;;;;;17.67;48.06;102529.63;10415204;28;20379;-50
2024/01/20 16:42:00;;;;;;;16.63;6.63;;;;;;;17.96;47.91;102541.09;10427187;28;20280;-54
2024/01/20 16:47:01;;;;;;;13.00;6.67;;;;;;;18.17;48.66;102550.25;10432623;28;20272;-55
2024/01/20 16:52:02;;;;;;;14.05;5.57;;;;;;;18.20;49.58;102549.75;10428024;28;20295;-55
2024/01/20 16:57:03;;;;;;;12.00;5.85;;;;;;;18.33;50.05;102546.69;10428391;28;20025;-56
2024/01/20 17:02:04;;;;;;;10.77;5.85;;;;;;;18.34;48.74;102547.50;10438117;28;20021;-56
2024/01/20 17:07:04;;;;;;;10.93;4.88;;;;;;;18.20;52.36;102549.75;10455368;28;20013;-53
2024/01/20 17:12:05;;;;;;;10.13;4.90;;;;;;;18.00;51.07;102552.97;10448297;28;20187;-55
2024/01/20 17:17:06;;;;;;;10.90;4.97;;;;;;;17.91;52.23;102548.25;10454897;28;20074;-56
2024/01/20 17:22:06;;;;;;;16.45;6.15;;;;;;;17.80;53.48;102528.53;10454456;28;20033;-55
2024/01/20 17:27:07;;;;;;;10.70;5.28;;;;;;;17.60;52.10;102533.53;10440471;28;20029;-54
2024/01/20 17:32:08;;;;;;;10.80;4.75;;;;;;;17.50;51.97;102539.53;10428328;28;20037;-55
2024/01/20 17:37:08;;;;;;;14.25;4.40;;;;;;;17.41;52.54;102536.47;10411009;28;20083;-55
2024/01/20 17:42:09;;;;;;;12.30;4.90;;;;;;;17.30;51.61;102523.13;10412809;28;20121;-56
2024/01/20 17:47:10;;;;;;;12.75;4.43;;;;;;;17.20;51.59;102529.13;10444557;28;20278;-55
2024/01/20 17:52:10;;;;;;;9.45;4.75;;;;;;;17.17;51.21;102524.25;10437948;28;20043;-56
2024/01/20 17:57:12;;;;;;;12.13;4.30;;;;;;;17.19;51.48;102522.97;10440554;28;20151;-55
2024/01/20 18:02:14;;;;;;;12.90;4.13;;;;;;;17.20;51.07;102521.91;10434789;28;20303;-56
2024/01/20 18:07:15;;;;;;;7.18;3.88;;;;;;;17.19;51.09;102528.31;10426946;28;20043;-56
2024/01/20 18:12:15;;;;;;;7.72;4.20;;;;;;;17.19;50.21;102530.19;10427383;28;20056;-56
2024/01/20 18:17:16;;;;;;;10.93;3.90;;;;;;;17.17;50.48;102529.63;10427205;28;20024;-55
2024/01/20 18:22:16;;;;;;;9.57;4.35;;;;;;;17.12;50.68;102524.97;10426416;28;20022;-55
2024/01/20 18:27:17;;;;;;;9.48;3.53;;;;;;;17.08;51.60;102512.31;10428361;28;20020;-54
2024/01/20 18:32:18;;;;;;;9.77;3.67;;;;;;;17.04;51.17;102511.94;10430014;28;20028;-55
2024/01/20 18:37:18;;;;;;;12.40;5.18;;;;;;;17.02;50.97;102500.66;10427864;28;20299;-56
2024/01/20 18:42:19;;;;;;;8.50;3.58;;;;;;;17.02;49.99;102511.38;10425332;28;20021;-54
2024/01/20 18:47:19;;;;;;;11.80;4.25;;;;;;;17.06;50.14;102517.91;10426967;28;20497;-54
2024/01/20 18:52:20;;;;;;;6.77;3.33;;;;;;;17.07;49.90;102511.50;10425174;28;20016;-55
2024/01/20 18:57:20;;;;;;;5.37;3.33;;;;;;;17.13;49.39;102507.84;10425498;28;20279;-55
2024/01/20 19:02:22;;;;;;;5.30;3.80;;;;;;;17.20;49.23;102513.06;10424914;28;20271;-55
2024/01/20 19:07:22;;;;;;;7.53;3.40;;;;;;;17.26;48.58;102517.44;10424063;28;20431;-55
2024/01/20 19:12:23;;;;;;;5.07;2.77;;;;;;;17.28;48.95;102509.94;10437536;28;20056;-56
2024/01/20 19:17:23;;;;;;;6.45;3.03;;;;;;;17.30;49.57;102517.78;10448962;28;20291;-55
2024/01/20 19:22:24;;;;;;;6.78;2.80;;;;;;;17.29;48.70;102508.13;10433825;28;20583;-55
2024/01/20 19:27:25;;;;;;;6.05;3.17;;;;;;;17.32;49.14;102502.25;10425276;28;20021;-55
2024/01/20 19:32:26;;;;;;;7.18;2.58;;;;;;;17.34;49.16;102495.59;10423490;28;20037;-55
2024/01/20 19:37:26;;;;;;;3.70;2.20;;;;;;;17.43;48.25;102491.44;10427929;28;20404;-56
2024/01/20 19:42:26;;;;;;;5.57;2.67;;;;;;;17.41;49.79;102479.34;10424946;28;20302;-55
2024/01/20 19:47:27;;;;;;;5.53;2.97;;;;;;;17.42;49.64;102467.56;10407990;28;20276;-56
2024/01/20 19:52:28;;;;;;;5.82;2.35;;;;;;;17.44;49.51;102458.22;10408415;28;20280;-56
2024/01/20 19:57:28;;;;;;;5.00;2.40;;;;;;;17.41;50.04;102456.03;10406355;28;20025;-55
2024/01/20 20:02:28;;;;;;;4.33;2.37;;;;;;;17.39;48.72;102452.75;10423384;28;20024;-56
2024/01/20 20:07:30;;;;;;;8.35;2.97;;;;;;;17.38;49.42;102455.69;10442913;28;20643;-56
2024/01/20 20:12:30;;;;;;;5.75;2.38;;;;;;;17.36;48.80;102436.34;10417245;28;20047;-57
2024/01/20 20:17:32;;;;;;;4.88;2.50;;;;;;;17.36;49.20;102439.03;10414589;28;20313;-56
2024/01/20 20:22:32;;;;;;;3.35;2.13;;;;;;;17.37;48.71;102435.28;10405419;28;20025;-56
2024/01/20 20:27:33;;;;;;;4.37;2.30;;;;;;;17.35;48.68;102414.09;10405217;28;20100;-56
2024/01/20 20:32:33;;;;;;;4.97;2.20;;;;;;;17.40;48.03;102405.28;10416453;28;20663;-54
2024/01/20 20:37:33;;;;;;;3.75;2.20;;;;;;;17.41;47.79;102394.34;10412053;28;20029;-55
2024/01/20 20:42:34;;;;;;;7.15;3.25;;;;;;;17.43;48.55;102389.56;10410942;28;20025;-56
2024/01/20 20:47:34;;;;;;;4.03;2.60;;;;;;;17.51;47.15;102388.28;10411426;28;20032;-56
2024/01/20 20:52:34;;;;;;;3.75;2.13;;;;;;;17.53;46.45;102389.69;10410383;28;20281;-56
2024/01/20 20:57:35;;;;;;;4.20;2.92;;;;;;;17.54;47.71;102382.47;10409549;28;20029;-56
2024/01/20 21:02:35;;;;;;;3.80;2.37;;;;;;;17.54;46.59;102393.19;10410262;28;20022;-56
2024/01/20 21:07:35;;;;;;;4.77;2.30;;;;;;;17.56;46.69;102380.34;10424331;28;20283;-56
2024/01/20 21:12:36;;;;;;;5.47;2.80;;;;;;;17.61;47.72;102390.31;10441111;28;20694;-55
2024/01/20 21:17:36;;;;;;;4.07;2.83;;;;;;;17.60;47.29;102367.22;10451492;28;20464;-56
2024/01/20 21:22:36;;;;;;;5.95;3.05;;;;;;;17.58;46.45;102355.94;10452150;28;20337;-54
2024/01/20 21:27:37;;;;;;;3.45;2.42;;;;;;;17.57;46.09;102351.66;10451149;28;20067;-56
2024/01/20 21:32:37;;;;;;;4.65;2.83;;;;;;;17.56;46.82;102347.34;10432211;28;20677;-54
2024/01/20 21:37:38;;;;;;;2.77;2.23;;;;;;;17.56;46.54;102341.97;10408313;28;20562;-56
2024/01/20 21:42:38;;;;;;;5.03;2.92;;;;;;;17.55;46.64;102335.81;10409703;28;20296;-54
2024/01/20 21:47:39;;;;;;;4.75;2.88;;;;;;;17.57;46.98;102330.19;10407781;28;20108;-54
2024/01/20 21:52:39;;;;;;;4.17;2.50;;;;;;;17.54;45.21;102326.94;10409714;28;20029;-55
2024/01/20 21:57:41;;;;;;;5.30;2.55;;;;;;;17.53;47.08;102319.97;10409317;28;20296;-56
2024/01/20 22:02:42;;;;;;;4.25;2.40;;;;;;;17.53;46.22;102313.78;10408976;28;20211;-55
2024/01/20 22:07:43;;;;;;;4.15;2.90;;;;;;;17.51;46.26;102303.28;10408535;28;20412;-55
2024/01/20 22:12:44;;;;;;;3.78;2.63;;;;;;;17.54;46.19;102310.03;10438853;28;20077;-55
2024/01/20 22:17:44;;;;;;;3.40;2.38;;;;;;;17.53;46.29;102309.22;10448979;28;20029;-55
2024/01/20 22:22:44;;;;;;;4.25;2.13;;;;;;;17.54;45.23;102302.81;10449365;28;20119;-55
2024/01/20 22:27:45;;;;;;;4.03;3.20;;;;;;;17.51;45.39;102300.59;10448714;28;20029;-55
2024/01/20 22:32:50;;;;;;;3.60;2.40;;;;;;;17.53;45.48;102287.78;10430040;28;20763;-55
2024/01/20 22:37:51;;;;;;;3.33;2.53;;;;;;;17.54;45.69;102276.00;10407186;28;20586;-53
2024/01/20 22:42:51;;;;;;;3.60;2.47;;;;;;;17.50;45.73;102264.13;10406670;28;20034;-55
2024/01/20 22:47:51;;;;;;;3.47;2.53;;;;;;;17.52;45.13;102253.13;10406525;28;20287;-55
2024/01/20 22:52:52;;;;;;;4.13;2.33;;;;;;;17.53;45.25;102241.38;10405538;28;20777;-55
2024/01/20 22:57:52;;;;;;;4.05;2.47;;;;;;;17.51;45.19;102230.06;10406700;28;20365;-55